Time;durP1;ratioP1;P1;durP2;ratioP2;P2;SDS_P1;SDS_P2;PMS_P1;PMS_P2;Temp;Humidity;BMP_temperature;BMP_pressure;BME280_temperature;BME280_humidity;BME280_pressure;Samples;Min_cycle;Max_cycle;Signal;HPM_P1;HPM_P2
2022/11/08 00:01:43;;;;;;;3.70;1.40;;;17.10;84.70;;;;;;5054313;28;20031;-76
2022/11/08 00:04:13;;;;;;;4.88;1.30;;;17.10;84.80;;;;;;5055261;28;20029;-76
2022/11/08 00:14:52;;;;;;;4.15;1.33;;;17.10;85.10;;;;;;5034299;28;20075;-76
2022/11/08 00:17:18;;;;;;;4.07;1.58;;;17.10;85.10;;;;;;5051074;28;20037;-76
2022/11/08 00:19:44;;;;;;;2.30;1.10;;;17.10;85.10;;;;;;5037369;28;20025;-76
2022/11/08 00:22:10;;;;;;;4.18;1.25;;;17.00;85.10;;;;;;5053796;28;20117;-76
2022/11/08 00:24:36;;;;;;;3.22;1.60;;;17.10;85.10;;;;;;5037126;28;20032;-76
2022/11/08 00:27:06;;;;;;;6.10;1.55;;;17.10;85.20;;;;;;5036846;28;20037;-76
2022/11/08 00:29:35;;;;;;;5.50;1.35;;;17.10;85.20;;;;;;5037085;28;20487;-76
2022/11/08 00:32:02;;;;;;;3.28;1.13;;;17.10;85.20;;;;;;5053539;28;20025;-75
2022/11/08 00:34:28;;;;;;;2.20;1.13;;;17.10;85.20;;;;;;5054722;28;20067;-75
2022/11/08 00:36:53;;;;;;;2.42;1.02;;;17.10;85.20;;;;;;5054610;28;20032;-75
2022/11/08 00:39:19;;;;;;;4.30;1.48;;;17.10;85.20;;;;;;5053133;28;20020;-76
2022/11/08 00:41:45;;;;;;;5.30;1.50;;;17.10;85.20;;;;;;5054580;28;20098;-76
2022/11/08 00:44:10;;;;;;;3.88;1.25;;;17.10;85.20;;;;;;5054488;28;20075;-76
2022/11/08 00:46:37;;;;;;;8.10;1.23;;;17.10;85.20;;;;;;5053181;28;20597;-76
2022/11/08 00:49:04;;;;;;;10.98;1.80;;;17.10;85.20;;;;;;5053259;28;20067;-75
2022/11/08 00:51:29;;;;;;;3.78;0.90;;;17.10;85.20;;;;;;5054532;28;20017;-76
2022/11/08 00:53:55;;;;;;;5.30;1.30;;;17.10;85.20;;;;;;5052906;28;20021;-76
2022/11/08 00:56:20;;;;;;;3.15;1.20;;;17.10;85.10;;;;;;5052827;28;20052;-76
2022/11/08 00:58:46;;;;;;;4.68;1.35;;;17.10;85.10;;;;;;5054181;28;20032;-76
2022/11/08 01:01:18;;;;;;;3.65;1.20;;;17.10;85.10;;;;;;5053160;28;20025;-76
2022/11/08 01:03:44;;;;;;;3.47;1.10;;;17.10;85.10;;;;;;5036577;28;20017;-76
2022/11/08 01:06:11;;;;;;;3.60;1.30;;;17.10;85.10;;;;;;5054050;28;20040;-76
2022/11/08 01:08:36;;;;;;;2.20;1.10;;;17.10;85.10;;;;;;5041643;28;20036;-76
2022/11/08 01:11:04;;;;;;;6.07;1.60;;;17.10;85.10;;;;;;5032876;28;20063;-76
2022/11/08 01:13:31;;;;;;;2.78;1.25;;;17.10;85.10;;;;;;5032824;28;20021;-76
2022/11/08 01:15:56;;;;;;;3.80;1.27;;;17.10;85.10;;;;;;5038879;28;20025;-76
2022/11/08 01:18:22;;;;;;;3.30;1.17;;;17.10;85.10;;;;;;5035923;28;20032;-76
2022/11/08 01:20:48;;;;;;;2.03;1.10;;;17.10;85.10;;;;;;5053641;28;20029;-76
2022/11/08 01:23:14;;;;;;;5.80;1.20;;;17.10;85.10;;;;;;5035844;28;20025;-76
2022/11/08 01:25:44;;;;;;;5.05;1.20;;;17.10;85.00;;;;;;5036009;28;20060;-76
2022/11/08 01:28:10;;;;;;;5.35;0.98;;;17.10;85.10;;;;;;5019421;28;20029;-76
2022/11/08 01:30:36;;;;;;;2.58;1.13;;;17.10;85.00;;;;;;5053708;28;20053;-76
2022/11/08 01:33:02;;;;;;;2.97;1.30;;;17.10;85.00;;;;;;5053541;28;20056;-76
2022/11/08 01:35:30;;;;;;;2.72;1.10;;;17.10;85.00;;;;;;5052299;28;20400;-76
2022/11/08 01:37:56;;;;;;;1.92;0.98;;;17.10;85.00;;;;;;5053449;28;20027;-75
2022/11/08 01:40:22;;;;;;;2.42;1.40;;;17.10;85.00;;;;;;5035506;28;20029;-75
2022/11/08 01:42:47;;;;;;;3.55;1.10;;;17.10;85.00;;;;;;5052283;28;20123;-75
2022/11/08 01:45:13;;;;;;;4.55;1.30;;;17.10;85.10;;;;;;5052100;28;20104;-75
2022/11/08 01:47:39;;;;;;;2.15;1.00;;;17.10;85.10;;;;;;5051996;28;20521;-75
2022/11/08 01:50:07;;;;;;;2.65;1.15;;;17.10;85.10;;;;;;5053150;28;20398;-75
2022/11/08 01:52:35;;;;;;;2.30;1.05;;;17.10;85.00;;;;;;5051676;28;20513;-75
2022/11/08 01:55:12;;;;;;;3.97;1.08;;;17.10;85.10;;;;;;5051882;28;20021;-75
2022/11/08 01:58:06;;;;;;;2.78;1.27;;;17.10;85.10;;;;;;5051804;28;20067;-75
2022/11/08 02:00:32;;;;;;;3.03;1.10;;;17.10;85.10;;;;;;5037998;28;20398;-75
2022/11/08 02:02:59;;;;;;;2.35;1.10;;;17.10;85.00;;;;;;5035355;28;20021;-75
2022/11/08 02:05:25;;;;;;;3.92;1.27;;;17.00;85.00;;;;;;5035362;28;20541;-75
2022/11/08 02:08:04;;;;;;;2.88;0.93;;;17.10;85.10;;;;;;5029858;28;20427;-76
2022/11/08 02:10:38;;;;;;;5.95;1.30;;;17.10;85.10;;;;;;5031813;28;20025;-75
2022/11/08 02:13:06;;;;;;;3.03;1.10;;;17.10;85.10;;;;;;5031801;28;20365;-75
2022/11/08 02:15:32;;;;;;;2.83;1.08;;;17.10;85.10;;;;;;5034382;28;20032;-76
2022/11/08 02:17:57;;;;;;;2.42;1.02;;;17.10;85.10;;;;;;5051719;28;20112;-75
2022/11/08 02:20:23;;;;;;;3.92;1.27;;;17.10;85.10;;;;;;5034655;28;20487;-76
2022/11/08 02:23:17;;;;;;;4.60;1.00;;;17.10;85.20;;;;;;5051402;28;20502;-75
2022/11/08 02:25:43;;;;;;;3.72;1.08;;;17.10;85.20;;;;;;5051529;28;20045;-75
2022/11/08 02:28:09;;;;;;;3.55;1.10;;;17.10;85.30;;;;;;5034862;28;20390;-75
2022/11/08 02:30:35;;;;;;;2.88;0.93;;;17.10;85.30;;;;;;5051449;28;20032;-76
2022/11/08 02:33:13;;;;;;;2.35;1.00;;;17.00;85.30;;;;;;5034933;28;20395;-75
2022/11/08 02:35:39;;;;;;;4.25;1.10;;;17.10;85.40;;;;;;5034715;28;20021;-75
2022/11/08 02:38:05;;;;;;;2.75;0.90;;;17.10;85.30;;;;;;5051271;28;20086;-75
2022/11/08 02:40:30;;;;;;;6.03;1.15;;;17.10;85.40;;;;;;5051496;28;20033;-75
2022/11/08 02:42:56;;;;;;;2.58;1.10;;;17.00;85.40;;;;;;5051216;28;20033;-75
2022/11/08 02:45:21;;;;;;;4.38;1.08;;;17.10;85.50;;;;;;5051198;28;20052;-75
2022/11/08 02:47:47;;;;;;;2.00;1.08;;;17.00;85.40;;;;;;5052349;28;20028;-76
2022/11/08 02:50:13;;;;;;;2.17;1.23;;;17.10;85.50;;;;;;5052002;28;20040;-75
2022/11/08 02:52:38;;;;;;;4.85;1.10;;;17.00;85.40;;;;;;5052642;28;20059;-75
2022/11/08 02:55:04;;;;;;;3.00;1.23;;;17.10;85.40;;;;;;5052256;28;20383;-75
2022/11/08 02:57:31;;;;;;;4.85;1.30;;;17.00;85.40;;;;;;5050892;28;20085;-75
2022/11/08 02:59:57;;;;;;;3.72;1.23;;;17.00;85.40;;;;;;5051213;28;20530;-75
2022/11/08 03:02:22;;;;;;;2.58;1.10;;;17.00;85.40;;;;;;5047652;28;20029;-75
2022/11/08 03:04:48;;;;;;;3.47;0.93;;;17.00;85.40;;;;;;5041565;28;20036;-75
2022/11/08 03:07:14;;;;;;;2.97;1.08;;;17.00;85.50;;;;;;5032145;28;20052;-75
2022/11/08 03:09:39;;;;;;;6.88;1.60;;;17.00;85.50;;;;;;5030981;28;20033;-75
2022/11/08 03:12:05;;;;;;;3.05;0.95;;;17.00;85.50;;;;;;5032257;28;20100;-75
2022/11/08 03:14:31;;;;;;;4.97;1.13;;;17.00;85.50;;;;;;5032313;28;20101;-75
2022/11/08 03:16:56;;;;;;;4.07;1.10;;;17.00;85.60;;;;;;5046369;28;20056;-75
2022/11/08 03:19:22;;;;;;;1.98;1.05;;;17.00;85.50;;;;;;5050369;28;20483;-75
2022/11/08 03:21:48;;;;;;;2.72;1.00;;;17.00;85.50;;;;;;5021470;28;20116;-75
2022/11/08 03:24:13;;;;;;;1.73;0.80;;;17.00;85.50;;;;;;5054663;28;20112;-75
2022/11/08 03:26:39;;;;;;;3.95;0.93;;;17.00;85.50;;;;;;5054747;28;20112;-75
2022/11/08 03:29:05;;;;;;;4.28;0.93;;;17.00;85.50;;;;;;5055928;28;20058;-75
2022/11/08 03:31:30;;;;;;;2.60;1.27;;;17.00;85.50;;;;;;5056219;28;20021;-75
2022/11/08 03:33:56;;;;;;;4.85;0.90;;;17.00;85.60;;;;;;5055867;28;20025;-75
2022/11/08 03:36:21;;;;;;;2.92;1.35;;;17.00;85.50;;;;;;5054496;28;20033;-76
2022/11/08 03:38:47;;;;;;;3.35;1.20;;;17.00;85.50;;;;;;5054705;28;20087;-76
2022/11/08 03:41:13;;;;;;;5.57;1.30;;;17.00;85.60;;;;;;5055699;28;20108;-76
2022/11/08 03:43:38;;;;;;;5.80;1.48;;;17.00;85.60;;;;;;5054532;28;20033;-76
2022/11/08 03:46:04;;;;;;;3.97;0.80;;;17.00;85.70;;;;;;5054525;28;20028;-75
2022/11/08 03:48:30;;;;;;;2.90;0.93;;;17.00;85.60;;;;;;5055347;28;20486;-75
2022/11/08 03:50:55;;;;;;;3.10;1.05;;;17.00;85.70;;;;;;5055494;28;20549;-75
2022/11/08 03:53:21;;;;;;;2.70;0.93;;;17.00;85.70;;;;;;5054403;28;20036;-75
2022/11/08 03:55:46;;;;;;;6.47;1.20;;;17.00;85.80;;;;;;5055467;28;20028;-75
2022/11/08 03:58:12;;;;;;;3.03;0.85;;;17.00;85.70;;;;;;5055358;28;20052;-75
2022/11/08 04:00:38;;;;;;;3.28;1.15;;;17.00;85.80;;;;;;5054374;28;20395;-75
2022/11/08 04:03:03;;;;;;;2.63;1.00;;;17.00;85.80;;;;;;5037238;28;20116;-75
2022/11/08 04:05:31;;;;;;;4.22;0.90;;;17.00;85.70;;;;;;5037536;28;20017;-76
2022/11/08 04:07:57;;;;;;;7.88;0.95;;;17.00;85.80;;;;;;5032290;28;20072;-76
2022/11/08 04:10:23;;;;;;;1.15;0.90;;;17.00;85.80;;;;;;5035239;28;20104;-76
2022/11/08 04:15:32;;;;;;;3.30;1.08;;;17.00;85.80;;;;;;5036684;28;20048;-76
2022/11/08 04:23:27;;;;;;;4.70;0.93;;;17.10;85.70;;;;;;5040178;28;20035;-75
2022/11/08 04:25:58;;;;;;;4.28;1.00;;;17.10;85.80;;;;;;5054883;28;20029;-76
2022/11/08 04:28:28;;;;;;;2.95;0.95;;;17.00;85.80;;;;;;5020548;28;20125;-75
2022/11/08 04:30:55;;;;;;;4.63;1.02;;;17.00;85.80;;;;;;5036412;28;20017;-75
2022/11/08 04:33:20;;;;;;;4.18;0.93;;;17.00;86.80;;;;;;5036949;28;20025;-75
2022/11/08 04:35:47;;;;;;;5.03;1.52;;;17.00;85.80;;;;;;5053372;28;20081;-75
2022/11/08 04:38:13;;;;;;;5.63;1.00;;;17.00;85.80;;;;;;5053608;28;20039;-75
2022/11/08 04:40:38;;;;;;;30.77;1.52;;;17.00;85.90;;;;;;5054832;28;20013;-75
2022/11/08 04:43:04;;;;;;;3.88;1.10;;;17.00;85.90;;;;;;5054603;28;20431;-75
2022/11/08 04:45:29;;;;;;;3.75;1.10;;;17.00;86.00;;;;;;5054112;28;20078;-76
2022/11/08 04:47:55;;;;;;;5.97;1.40;;;17.00;86.00;;;;;;5053319;28;20075;-75
2022/11/08 04:50:20;;;;;;;4.10;1.17;;;17.00;86.00;;;;;;5054430;28;20021;-75
2022/11/08 04:52:53;;;;;;;5.30;1.10;;;17.00;86.10;;;;;;5053269;28;20025;-75
2022/11/08 04:55:19;;;;;;;3.15;1.10;;;17.00;86.00;;;;;;5036851;28;20017;-75
2022/11/08 04:57:45;;;;;;;3.92;1.30;;;17.00;86.10;;;;;;5052912;28;20053;-75
2022/11/08 05:00:12;;;;;;;7.40;1.10;;;17.00;86.00;;;;;;5052736;28;20033;-75
2022/11/08 05:02:37;;;;;;;5.68;1.15;;;17.00;86.00;;;;;;5053138;28;20024;-75
2022/11/08 05:05:03;;;;;;;2.47;1.13;;;17.00;86.10;;;;;;5052896;28;20448;-76
2022/11/08 05:07:29;;;;;;;6.25;1.45;;;17.00;86.00;;;;;;5051057;28;20036;-75
2022/11/08 05:09:55;;;;;;;4.10;0.80;;;17.00;86.10;;;;;;5033018;28;20470;-75
2022/11/08 05:12:20;;;;;;;3.90;1.08;;;17.00;86.00;;;;;;5033992;28;20053;-75
2022/11/08 05:14:46;;;;;;;2.08;1.00;;;17.00;86.00;;;;;;5032746;28;20079;-75
2022/11/08 05:17:12;;;;;;;5.43;1.50;;;17.00;86.00;;;;;;5050203;28;20039;-75
2022/11/08 05:25:06;;;;;;;4.78;1.00;;;17.00;86.00;;;;;;5052877;28;20032;-75
2022/11/08 05:27:32;;;;;;;6.10;1.15;;;17.00;86.10;;;;;;5052295;28;20037;-75
2022/11/08 05:29:57;;;;;;;2.00;0.93;;;17.00;86.00;;;;;;5052335;28;20029;-76
2022/11/08 05:32:23;;;;;;;3.45;1.02;;;17.00;86.00;;;;;;5052364;28;20539;-76
2022/11/08 05:34:49;;;;;;;4.90;1.10;;;17.00;86.00;;;;;;5053649;28;20150;-76
2022/11/08 05:37:14;;;;;;;3.17;1.00;;;17.00;86.10;;;;;;5052434;28;20029;-76
2022/11/08 05:39:40;;;;;;;3.05;1.33;;;17.00;86.10;;;;;;5053267;28;20021;-76
2022/11/08 05:42:05;;;;;;;3.47;0.90;;;17.00;86.20;;;;;;5053278;28;20021;-76
2022/11/08 05:44:31;;;;;;;3.33;1.33;;;17.00;86.20;;;;;;5051509;28;20047;-76
2022/11/08 05:46:57;;;;;;;3.58;1.02;;;17.00;86.30;;;;;;5052035;28;20107;-76
2022/11/08 05:49:22;;;;;;;3.70;1.00;;;17.00;86.20;;;;;;5053243;28;20586;-76
2022/11/08 05:51:48;;;;;;;2.55;1.00;;;17.00;86.30;;;;;;5052123;28;20121;-76
2022/11/08 05:54:13;;;;;;;4.18;1.13;;;17.00;86.20;;;;;;5052176;28;20048;-76
2022/11/08 05:56:39;;;;;;;3.53;1.02;;;17.00;86.20;;;;;;5052867;28;20084;-76
2022/11/08 05:59:05;;;;;;;3.30;0.88;;;17.00;86.20;;;;;;5035028;28;20025;-76
2022/11/08 06:01:30;;;;;;;5.28;1.33;;;16.90;86.20;;;;;;5052937;28;20032;-75
2022/11/08 06:03:56;;;;;;;6.38;1.30;;;17.00;86.20;;;;;;5053192;28;20108;-75
2022/11/08 06:06:22;;;;;;;6.88;0.98;;;17.00;86.20;;;;;;5052866;28;20065;-75
2022/11/08 06:08:47;;;;;;;2.10;1.00;;;17.00;86.20;;;;;;5039208;28;20029;-75
2022/11/08 06:11:15;;;;;;;3.72;1.00;;;17.00;86.30;;;;;;5031906;28;20106;-75
2022/11/08 06:13:41;;;;;;;6.07;1.10;;;17.00;86.30;;;;;;5031441;28;21093;-75
2022/11/08 06:16:09;;;;;;;5.25;0.80;;;16.90;86.20;;;;;;5040075;28;20056;-76
2022/11/08 06:18:34;;;;;;;4.55;0.85;;;17.00;86.40;;;;;;5035242;28;20073;-76
2022/11/08 06:21:03;;;;;;;4.20;1.30;;;17.00;86.30;;;;;;5051633;28;20096;-76
2022/11/08 06:23:28;;;;;;;3.85;0.70;;;17.00;86.30;;;;;;5035025;28;20051;-76
2022/11/08 06:25:54;;;;;;;6.28;1.10;;;17.00;86.30;;;;;;5052596;28;20479;-76
2022/11/08 06:28:19;;;;;;;2.58;1.13;;;17.00;86.30;;;;;;5034745;28;20021;-76
2022/11/08 06:30:45;;;;;;;5.60;1.30;;;17.00;86.30;;;;;;5052637;28;20025;-76
2022/11/08 06:33:11;;;;;;;5.38;1.25;;;17.00;86.30;;;;;;5052623;28;20013;-76
2022/11/08 06:35:37;;;;;;;3.90;1.73;;;17.00;86.40;;;;;;5051277;28;20032;-76
2022/11/08 06:38:02;;;;;;;3.00;0.90;;;16.90;86.40;;;;;;5034929;28;20048;-76
2022/11/08 06:40:29;;;;;;;4.55;0.95;;;16.90;86.40;;;;;;5051357;28;20033;-76
2022/11/08 06:42:57;;;;;;;3.85;0.90;;;16.90;86.40;;;;;;5051151;28;20021;-75
2022/11/08 06:45:26;;;;;;;3.45;1.05;;;16.90;86.50;;;;;;5052477;28;20025;-76
2022/11/08 06:47:59;;;;;;;4.78;1.10;;;16.90;86.50;;;;;;5052324;28;20025;-76
2022/11/08 06:50:24;;;;;;;;;;;17.00;86.60;;;;;;5035102;28;20024;-76
2022/11/08 06:53:00;;;;;;;3.55;0.90;;;16.90;86.50;;;;;;5052374;28;20329;-76
2022/11/08 06:55:26;;;;;;;5.80;1.38;;;16.90;86.60;;;;;;5050897;28;20028;-76
2022/11/08 06:57:52;;;;;;;3.83;0.85;;;16.90;86.50;;;;;;5051992;28;20048;-76
2022/11/08 07:00:18;;;;;;;6.32;1.30;;;16.90;86.50;;;;;;5034513;28;20025;-76
2022/11/08 07:02:43;;;;;;;7.00;1.33;;;16.90;86.60;;;;;;5034291;28;20399;-75
2022/11/08 07:05:12;;;;;;;4.18;1.00;;;16.90;86.60;;;;;;5051288;28;20028;-76
2022/11/08 07:07:38;;;;;;;6.82;1.10;;;16.90;86.60;;;;;;5047734;28;20033;-75
2022/11/08 07:10:04;;;;;;;4.25;1.30;;;17.00;86.70;;;;;;5031023;28;20506;-76
2022/11/08 07:12:30;;;;;;;4.13;1.08;;;17.00;86.60;;;;;;5031133;28;20024;-77
2022/11/08 07:14:55;;;;;;;8.50;1.42;;;17.00;86.70;;;;;;5031002;28;20427;-76
2022/11/08 07:17:21;;;;;;;7.57;1.33;;;16.90;86.60;;;;;;5048535;28;20029;-76
2022/11/08 07:19:47;;;;;;;3.05;1.23;;;17.00;86.60;;;;;;5049132;28;20025;-75
2022/11/08 07:22:12;;;;;;;3.60;1.13;;;17.00;86.50;;;;;;5052111;28;20032;-75
2022/11/08 07:24:38;;;;;;;4.70;1.02;;;17.00;86.20;;;;;;5050539;28;20025;-76
2022/11/08 07:27:03;;;;;;;5.97;1.05;;;16.90;85.90;;;;;;5050726;28;20167;-75
2022/11/08 07:29:29;;;;;;;8.40;1.45;;;16.90;85.70;;;;;;5051667;28;20107;-74
2022/11/08 07:31:55;;;;;;;4.43;1.00;;;16.90;85.70;;;;;;5050900;28;20369;-75
2022/11/08 07:34:20;;;;;;;6.50;1.23;;;16.90;85.40;;;;;;5050666;28;20040;-75
2022/11/08 07:36:46;;;;;;;4.63;1.05;;;16.90;85.30;;;;;;5051723;28;20021;-76
2022/11/08 07:39:12;;;;;;;4.63;1.08;;;16.90;85.10;;;;;;5034149;28;20020;-76
2022/11/08 07:41:37;;;;;;;7.30;0.98;;;16.90;85.10;;;;;;5026767;28;20037;-76
2022/11/08 07:44:03;;;;;;;6.65;1.20;;;16.90;84.90;;;;;;5033056;28;20033;-76
2022/11/08 07:46:29;;;;;;;6.05;1.80;;;16.90;84.90;;;;;;5030848;28;20034;-76
2022/11/08 07:48:54;;;;;;;4.03;1.02;;;16.90;84.80;;;;;;5030509;28;20018;-76
2022/11/08 07:51:20;;;;;;;7.00;1.27;;;16.90;84.70;;;;;;5030723;28;20075;-76
2022/11/08 07:53:45;;;;;;;11.85;1.95;;;16.90;84.70;;;;;;5031452;28;20032;-79
2022/11/08 07:56:11;;;;;;;44.65;6.40;;;16.90;84.60;;;;;;5028462;28;20060;-78
2022/11/08 07:58:37;;;;;;;33.55;3.97;;;16.90;84.80;;;;;;5028805;28;20049;-78
2022/11/08 08:01:02;;;;;;;30.75;3.53;;;16.90;85.00;;;;;;5011084;28;20030;-78
2022/11/08 08:03:28;;;;;;;32.03;4.50;;;16.90;85.10;;;;;;5027746;28;20440;-78
2022/11/08 08:05:54;;;;;;;30.83;4.35;;;16.90;85.20;;;;;;5028089;28;20025;-78
2022/11/08 08:08:20;;;;;;;28.27;3.42;;;16.90;85.30;;;;;;5030823;28;20083;-78
2022/11/08 08:10:45;;;;;;;33.45;4.78;;;16.90;85.30;;;;;;5031362;28;20033;-78
2022/11/08 08:13:11;;;;;;;24.90;4.15;;;16.90;85.40;;;;;;5036548;28;20040;-78
2022/11/08 08:15:36;;;;;;;24.60;3.88;;;16.90;85.40;;;;;;5041202;28;20101;-78
2022/11/08 08:18:03;;;;;;;28.83;4.88;;;16.90;85.40;;;;;;5048580;28;20039;-78
2022/11/08 08:20:29;;;;;;;22.63;4.57;;;16.80;85.30;;;;;;5053118;28;20495;-78
2022/11/08 08:22:54;;;;;;;21.60;4.07;;;16.80;85.30;;;;;;5032682;28;20484;-78
2022/11/08 08:25:20;;;;;;;22.50;4.55;;;16.80;85.30;;;;;;5033921;28;20055;-78
2022/11/08 08:27:50;;;;;;;38.95;5.95;;;16.90;85.40;;;;;;5034639;28;20487;-78
2022/11/08 08:30:16;;;;;;;26.83;4.25;;;16.90;85.30;;;;;;5043682;28;20017;-78
2022/11/08 08:32:43;;;;;;;26.55;3.75;;;16.90;85.20;;;;;;5036790;28;20025;-79
2022/11/08 08:35:08;;;;;;;28.52;4.28;;;16.90;86.20;;;;;;5053770;28;20021;-78
2022/11/08 08:37:34;;;;;;;16.88;3.45;;;16.80;85.10;;;;;;5053222;28;20032;-78
2022/11/08 08:40:00;;;;;;;31.60;4.00;;;16.80;85.00;;;;;;5053434;28;20031;-78
2022/11/08 08:42:25;;;;;;;26.45;4.30;;;16.80;85.10;;;;;;5054677;28;20048;-78
2022/11/08 08:44:51;;;;;;;22.27;3.72;;;16.80;85.00;;;;;;5054599;28;20446;-78
2022/11/08 08:47:16;;;;;;;20.00;4.13;;;16.80;84.90;;;;;;5043689;28;20083;-78
2022/11/08 08:49:42;;;;;;;22.65;4.90;;;16.80;84.90;;;;;;5034296;28;20025;-78
2022/11/08 08:52:08;;;;;;;17.48;3.67;;;16.80;84.90;;;;;;5034259;28;20112;-78
2022/11/08 08:54:33;;;;;;;29.20;4.38;;;16.80;84.80;;;;;;5033233;28;20541;-78
2022/11/08 08:56:59;;;;;;;20.95;3.92;;;16.80;84.80;;;;;;5032972;28;20111;-78
2022/11/08 08:59:29;;;;;;;26.02;3.97;;;16.80;84.80;;;;;;5033207;28;20061;-78
2022/11/08 09:01:55;;;;;;;23.48;4.22;;;16.80;84.70;;;;;;5032937;28;20029;-78
2022/11/08 09:04:20;;;;;;;19.63;3.72;;;16.80;84.70;;;;;;5034238;28;20029;-78
2022/11/08 09:06:46;;;;;;;21.70;4.60;;;16.80;84.80;;;;;;5032681;28;20033;-78
2022/11/08 09:09:11;;;;;;;17.95;3.30;;;16.80;84.70;;;;;;5032805;28;20484;-78
2022/11/08 09:11:37;;;;;;;22.23;3.85;;;16.80;84.70;;;;;;5032845;28;20427;-78
2022/11/08 09:14:03;;;;;;;18.90;3.78;;;16.80;84.60;;;;;;5032916;28;20100;-78
2022/11/08 09:16:28;;;;;;;21.05;3.58;;;16.80;84.60;;;;;;5033075;28;20056;-78
2022/11/08 09:18:54;;;;;;;28.50;3.92;;;16.80;84.60;;;;;;5033582;28;20097;-78
2022/11/08 09:21:20;;;;;;;17.90;3.38;;;16.80;84.60;;;;;;5041468;28;20032;-78
2022/11/08 09:23:45;;;;;;;19.77;4.22;;;16.80;84.50;;;;;;5052365;28;20029;-78
2022/11/08 09:26:11;;;;;;;15.40;3.58;;;16.80;84.50;;;;;;5053789;28;20025;-78
2022/11/08 09:28:37;;;;;;;17.88;3.90;;;16.80;84.50;;;;;;5053772;28;20049;-78
2022/11/08 09:31:04;;;;;;;16.13;3.78;;;16.80;84.50;;;;;;5052425;28;20036;-78
2022/11/08 09:33:30;;;;;;;14.95;3.58;;;16.80;84.50;;;;;;5052557;28;20013;-78
2022/11/08 09:35:56;;;;;;;20.55;3.70;;;16.80;84.40;;;;;;5035509;28;20029;-78
2022/11/08 09:38:22;;;;;;;21.70;3.22;;;16.80;84.40;;;;;;5052110;28;20499;-78
2022/11/08 09:40:53;;;;;;;18.60;3.42;;;16.80;84.30;;;;;;5035658;28;20021;-78
2022/11/08 09:43:40;;;;;;;25.17;4.45;;;16.80;84.50;;;;;;5035708;28;20446;-78
2022/11/08 09:46:08;;;;;;;16.00;3.85;;;16.80;84.30;;;;;;5053278;28;20500;-78
2022/11/08 09:48:35;;;;;;;15.95;3.17;;;16.80;84.30;;;;;;5019150;28;20108;-78
2022/11/08 09:51:19;;;;;;;19.75;3.75;;;16.70;84.30;;;;;;5035206;28;20021;-78
2022/11/08 09:53:53;;;;;;;14.45;3.05;;;16.70;84.30;;;;;;5019178;28;20025;-79
2022/11/08 09:56:30;;;;;;;16.08;3.30;;;16.70;84.20;;;;;;5018755;28;20602;-78
2022/11/08 09:59:17;;;;;;;18.83;3.88;;;16.80;84.30;;;;;;5035415;28;20033;-78
2022/11/08 10:01:42;;;;;;;13.05;2.58;;;16.70;84.20;;;;;;5051505;28;20500;-79
2022/11/08 10:04:13;;;;;;;13.63;2.67;;;16.70;84.20;;;;;;5034855;28;20031;-78
2022/11/08 10:06:45;;;;;;;15.25;2.97;;;16.70;84.20;;;;;;5052921;28;20021;-78
2022/11/08 10:09:31;;;;;;;22.52;3.97;;;16.70;84.20;;;;;;5037228;28;20028;-78
2022/11/08 10:12:03;;;;;;;19.08;3.78;;;16.70;84.20;;;;;;5032981;28;20389;-78
2022/11/08 10:14:49;;;;;;;27.23;3.97;;;16.70;84.20;;;;;;5031618;28;20076;-78
2022/11/08 10:17:36;;;;;;;14.63;3.00;;;16.70;84.10;;;;;;5033059;28;20100;-78
2022/11/08 10:20:04;;;;;;;14.43;3.00;;;16.70;84.20;;;;;;5031218;28;20156;-78
2022/11/08 10:22:48;;;;;;;19.50;3.10;;;16.70;84.20;;;;;;5051614;28;20100;-78
2022/11/08 10:25:25;;;;;;;19.27;3.33;;;16.70;84.10;;;;;;5052804;28;20112;-78
2022/11/08 10:27:55;;;;;;;20.08;3.67;;;16.70;84.10;;;;;;5018572;28;20074;-78
2022/11/08 10:30:33;;;;;;;17.35;2.65;;;16.70;84.10;;;;;;5034496;28;20029;-78
2022/11/08 10:32:59;;;;;;;17.48;2.92;;;16.70;84.10;;;;;;5035092;28;20029;-78
2022/11/08 10:35:30;;;;;;;13.40;3.40;;;16.70;84.10;;;;;;5034578;28;20151;-78
2022/11/08 10:37:57;;;;;;;16.23;3.33;;;16.70;84.10;;;;;;5052437;28;20032;-78
2022/11/08 10:40:37;;;;;;;16.63;3.10;;;16.70;84.10;;;;;;5051496;28;20025;-78
2022/11/08 10:43:09;;;;;;;14.93;3.13;;;16.70;84.10;;;;;;5051263;28;20030;-78
2022/11/08 10:45:34;;;;;;;16.40;3.50;;;16.70;84.10;;;;;;5034813;28;20479;-78
2022/11/08 10:48:00;;;;;;;19.17;2.97;;;16.70;84.10;;;;;;5052103;28;20032;-78
2022/11/08 10:50:50;;;;;;;15.35;2.97;;;16.70;84.10;;;;;;5052371;28;20418;-78
2022/11/08 10:53:26;;;;;;;11.27;2.92;;;16.70;84.10;;;;;;5048346;28;20025;-78
2022/11/08 10:56:01;;;;;;;16.20;3.25;;;16.70;84.00;;;;;;5018972;28;20520;-78
2022/11/08 10:58:40;;;;;;;17.70;3.05;;;16.70;84.10;;;;;;5018458;28;20044;-78
2022/11/08 11:01:20;;;;;;;14.25;2.90;;;16.70;84.00;;;;;;5050858;28;20021;-78
2022/11/08 11:03:46;;;;;;;19.33;3.35;;;16.70;84.00;;;;;;5034544;28;20028;-78
2022/11/08 11:06:29;;;;;;;18.70;3.63;;;16.70;84.00;;;;;;5050814;28;20028;-78
2022/11/08 11:08:56;;;;;;;19.17;2.97;;;16.70;84.00;;;;;;5021759;28;20076;-78
2022/11/08 11:11:32;;;;;;;18.20;2.85;;;16.70;84.00;;;;;;5031076;28;20101;-78
2022/11/08 11:14:10;;;;;;;15.93;3.70;;;16.70;84.00;;;;;;5030979;28;20028;-78
2022/11/08 11:16:35;;;;;;;11.77;2.70;;;16.70;84.00;;;;;;5030840;28;20476;-78
2022/11/08 11:19:01;;;;;;;15.95;2.88;;;16.70;84.00;;;;;;5014326;28;20067;-78
2022/11/08 11:21:33;;;;;;;15.23;3.38;;;16.70;84.00;;;;;;5040713;28;20048;-78
2022/11/08 11:24:06;;;;;;;11.60;2.85;;;16.70;84.00;;;;;;5018420;28;20116;-78
2022/11/08 11:26:33;;;;;;;12.48;2.28;;;16.70;84.00;;;;;;5034477;28;20535;-78
2022/11/08 11:29:08;;;;;;;13.80;3.28;;;16.70;84.00;;;;;;5034313;28;20021;-78
2022/11/08 11:31:37;;;;;;;14.80;3.38;;;16.70;84.00;;;;;;5051617;28;20100;-78
2022/11/08 11:34:18;;;;;;;13.82;2.90;;;16.70;83.90;;;;;;5034022;28;20586;-78
2022/11/08 11:36:46;;;;;;;14.70;2.88;;;16.70;83.90;;;;;;5051886;28;20032;-78
2022/11/08 11:39:45;;;;;;;17.83;3.17;;;16.70;83.90;;;;;;5051945;28;20100;-78
2022/11/08 11:42:17;;;;;;;14.75;3.05;;;16.70;83.80;;;;;;5039083;28;20471;-78
2022/11/08 11:44:53;;;;;;;10.50;2.28;;;16.70;83.90;;;;;;5038579;28;20017;-78
2022/11/08 11:47:29;;;;;;;12.07;2.25;;;16.70;83.90;;;;;;5054162;28;20025;-78
2022/11/08 11:49:55;;;;;;;18.40;3.70;;;16.70;83.80;;;;;;5038214;28;20017;-78
2022/11/08 11:52:20;;;;;;;13.73;2.60;;;16.70;83.80;;;;;;5021243;28;20140;-78
2022/11/08 11:54:47;;;;;;;17.48;2.78;;;16.70;83.80;;;;;;5054362;28;20041;-78
2022/11/08 11:57:33;;;;;;;14.35;2.33;;;16.70;83.80;;;;;;5037547;28;20048;-78
2022/11/08 12:00:08;;;;;;;14.48;2.97;;;16.70;83.80;;;;;;5040093;28;20100;-78
2022/11/08 12:02:53;;;;;;;16.23;3.50;;;16.70;83.80;;;;;;5037929;28;20036;-78
2022/11/08 12:05:37;;;;;;;15.00;2.50;;;16.70;83.80;;;;;;5055322;28;20032;-78
2022/11/08 12:08:14;;;;;;;11.10;3.38;;;16.60;83.70;;;;;;5048756;28;20484;-78
2022/11/08 12:10:57;;;;;;;14.82;3.42;;;16.70;83.80;;;;;;5035309;28;20104;-78
2022/11/08 12:13:35;;;;;;;15.50;2.60;;;16.70;83.70;;;;;;5035233;28;20104;-78
2022/11/08 12:16:06;;;;;;;16.00;3.22;;;16.70;83.80;;;;;;5034952;28;20045;-78
2022/11/08 12:18:56;;;;;;;13.13;2.70;;;16.70;83.70;;;;;;5034093;28;20550;-78
2022/11/08 12:21:38;;;;;;;16.90;3.10;;;16.70;83.70;;;;;;5042713;28;20395;-78
2022/11/08 12:24:28;;;;;;;18.73;3.78;;;16.70;83.70;;;;;;5053551;28;20029;-78
2022/11/08 12:27:17;;;;;;;17.05;3.45;;;16.70;83.70;;;;;;5054601;28;20029;-78
2022/11/08 12:29:46;;;;;;;16.05;3.00;;;16.70;83.70;;;;;;5038731;28;20124;-78
2022/11/08 12:32:17;;;;;;;13.32;2.30;;;16.70;83.70;;;;;;5053373;28;20022;-78
2022/11/08 12:35:05;;;;;;;16.20;2.58;;;16.70;83.70;;;;;;5053441;28;20403;-78
2022/11/08 12:38:11;;;;;;;15.65;3.00;;;16.60;83.60;;;;;;5053693;28;20479;-78
2022/11/08 12:40:51;;;;;;;12.90;2.10;;;16.70;83.70;;;;;;5042490;28;20040;-78
2022/11/08 12:43:28;;;;;;;16.00;2.85;;;16.70;83.80;;;;;;5054662;28;20025;-78
2022/11/08 12:46:16;;;;;;;9.93;2.60;;;16.70;83.70;;;;;;5052999;28;20051;-78
2022/11/08 12:48:54;;;;;;;13.23;2.45;;;16.70;83.70;;;;;;5039782;28;20048;-78
2022/11/08 12:51:37;;;;;;;11.18;2.53;;;16.70;83.70;;;;;;5054405;28;20021;-78
2022/11/08 12:54:06;;;;;;;13.00;2.08;;;16.60;84.60;;;;;;5053171;28;20120;-78
2022/11/08 12:56:40;;;;;;;12.48;2.85;;;16.70;83.70;;;;;;5052889;28;20041;-78
2022/11/08 12:59:18;;;;;;;19.10;2.53;;;16.70;83.70;;;;;;5036552;28;20026;-78
2022/11/08 13:01:44;;;;;;;13.93;3.00;;;16.70;83.70;;;;;;5052941;28;20025;-78
2022/11/08 13:04:25;;;;;;;16.05;2.58;;;16.70;83.80;;;;;;5036539;28;20039;-78
2022/11/08 13:06:56;;;;;;;16.77;2.83;;;16.70;83.80;;;;;;5054061;28;20076;-78
2022/11/08 13:09:40;;;;;;;14.77;2.50;;;16.70;83.80;;;;;;5035582;28;20022;-79
2022/11/08 13:12:39;;;;;;;14.50;3.08;;;16.70;83.70;;;;;;5032650;28;20046;-78
2022/11/08 13:15:13;;;;;;;11.85;2.35;;;16.70;83.80;;;;;;5032698;28;20083;-78